WetterOnline ( https://www.wetteronline.de )

Wetter aktuell Rosport

Aktuelles Wetter: Trier/Petrisberg (273m)

6-stündlich | Neueste Meldungen
Ortszeit Temperatur Wetter
Mi, 22.05. 8:00 9.3° C bedeckt
Mi, 22.05. 2:00 9.3° C wolkig
Di, 21.05. 20:00 11.6° C leichter Regen
Di, 21.05. 14:00 11.7° C Sprühregen
Di, 21.05. 8:00 11.6° C bedeckt
Di, 21.05. 2:00 12.2° C bedeckt
Mo, 20.05. 20:00 14.6° C wolkig
Mo, 20.05. 14:00 18.3° C bewölkt
Ortszeit Temperatur Wetter
Mi, 22.05. 13:00 15.6° C leicht bewölkt
Mi, 22.05. 12:50 15.6° C leicht bewölkt
Mi, 22.05. 12:40 16.3° C fast wolkenlos
Mi, 22.05. 12:30 14.7° C leicht bewölkt
Mi, 22.05. 12:20 14.7° C leicht bewölkt
Mi, 22.05. 12:10 15.5° C leicht bewölkt
Mi, 22.05. 12:00 14.7° C wolkig
Mi, 22.05. 11:30 13.5° C leicht bewölkt
Mi, 22.05. 11:00 13.2° C fast wolkenlos
Mi, 22.05. 10:30 11.5° C wolkenlos
Mi, 22.05. 10:00 11.5° C wolkig
Ortszeit Relative Feuchte Sichtweite
Mi, 22.05. 8:00 86% 28 km
Mi, 22.05. 2:00 89% 30 km
Di, 21.05. 20:00 94% 8 km
Di, 21.05. 14:00 89% 13 km
Di, 21.05. 8:00 83% 40 km
Di, 21.05. 2:00 81% 35 km
Mo, 20.05. 20:00 71% 18 km
Mo, 20.05. 14:00 62% 30 km
Ortszeit Relative Feuchte Sichtweite
Mi, 22.05. 13:00 52% 40 km
Mi, 22.05. 12:50 52% -
Mi, 22.05. 12:40 54% -
Mi, 22.05. 12:30 54% 35 km
Mi, 22.05. 12:20 54% -
Mi, 22.05. 12:10 58% -
Mi, 22.05. 12:00 65% 40 km
Mi, 22.05. 11:30 68% 40 km
Mi, 22.05. 11:00 68% 40 km
Mi, 22.05. 10:30 71% 40 km
Mi, 22.05. 10:00 71% 35 km
Ortszeit Niederschlagsmenge Niederschlagsart
Mi, 22.05. 8:00 0.1 l/m2 in 12 Std. -
Mi, 22.05. 2:00 0.1 l/m2 in 6 Std. Regen
Di, 21.05. 20:00 4 l/m2 in 12 Std. Regen
Di, 21.05. 14:00 2 l/m2 in 6 Std. Regen
Di, 21.05. 8:00 0.0 l/m2 in 12 Std. -
Di, 21.05. 2:00 0.0 l/m2 in 6 Std. -
Mo, 20.05. 20:00 0.1 l/m2 in 12 Std. Regen
Mo, 20.05. 14:00 0.0 l/m2 in 6 Std. -
Ortszeit Niederschlagsmenge Niederschlagsart
Mi, 22.05. 13:00 0.0 l/m2 in 1 Std. -
Mi, 22.05. 12:50 keine Meldung -
Mi, 22.05. 12:40 keine Meldung -
Mi, 22.05. 12:30 0.0 l/m2 in 1 Std. -
Mi, 22.05. 12:20 keine Meldung -
Mi, 22.05. 12:10 keine Meldung -
Mi, 22.05. 12:00 0.0 l/m2 in 1 Std. -
Mi, 22.05. 11:30 0.0 l/m2 in 1 Std. -
Mi, 22.05. 11:00 0.0 l/m2 in 1 Std. -
Mi, 22.05. 10:30 0.0 l/m2 in 1 Std. -
Mi, 22.05. 10:00 0.0 l/m2 in 1 Std. -
Ortszeit Stärke Spitze Richtung
km/h Bft. km/h Grad Sektor
Mi, 22.05. 8:00 7 2 14 300° NW
Mi, 22.05. 2:00 6 1 20 280° W
Di, 21.05. 20:00 4 1 25 360° N
Di, 21.05. 14:00 7 2 30 360° N
Di, 21.05. 8:00 11 2 29 270° W
Di, 21.05. 2:00 9 2 31 280° W
Mo, 20.05. 20:00 11 2 29 310° NW
Mo, 20.05. 14:00 11 2 28 300° NW
Ortszeit Stärke Spitze Richtung
km/h Bft. km/h Grad Sektor
Mi, 22.05. 13:00 6 1 17 280° W
Mi, 22.05. 12:50 6 1 - 280° W
Mi, 22.05. 12:40 7 2 - 360° N
Mi, 22.05. 12:30 6 1 15 250° W
Mi, 22.05. 12:20 6 1 - 250° W
Mi, 22.05. 12:10 4 1 - 310° NW
Mi, 22.05. 12:00 4 1 18 200° S
Mi, 22.05. 11:30 6 1 13 190° S
Mi, 22.05. 11:00 6 1 11 30° NO
Mi, 22.05. 10:30 4 1 11 10° N
Mi, 22.05. 10:00 4 1 14 10° N
Ortszeit Untergrenze Bedeckung Gattung
total tief tief mittel hoch
Mi, 22.05. 8:00 330 m 8/8 8/8 - - -
Mi, 22.05. 2:00 540 m 8/8 1/8 - - -
Di, 21.05. 20:00 1170 m 8/8 8/8 - - -
Di, 21.05. 14:00 510 m 8/8 8/8 - - -
Di, 21.05. 8:00 300 m 8/8 8/8 - - -
Di, 21.05. 2:00 390 m 8/8 8/8 - - -
Mo, 20.05. 20:00 690 m 8/8 3/8 - - -
Mo, 20.05. 14:00 990 m 7/8 7/8 - - -
Ortszeit Bedeckungsgrad in Achtel und Wolkenuntergrenze
Mi, 22.05. 13:00 2(1110m)
Mi, 22.05. 12:50 2(1110m)
Mi, 22.05. 12:40 1(1140m)
Mi, 22.05. 12:30 1(750m)
Mi, 22.05. 12:20 1(750m) 2(900m)
Mi, 22.05. 12:10 3(780m)
Mi, 22.05. 12:00 4(780m) 5(900m)
Mi, 22.05. 11:30 2(600m) 3(750m)
Mi, 22.05. 11:00 1(660m)
Mi, 22.05. 10:30 keine Wolken
Mi, 22.05. 10:00 6(480m)
Ortszeit Luftdruck NN (hPa) Tendenz (hPa in 3 Std.)
Mi, 22.05. 8:00 1020 + 0,6
Mi, 22.05. 2:00 1019 + 0,5
Di, 21.05. 20:00 1017 + 0,9
Di, 21.05. 14:00 1014 + 1,6
Di, 21.05. 8:00 1011 + 1,0
Di, 21.05. 2:00 1010 0,0
Mo, 20.05. 20:00 1008 + 1,2
Mo, 20.05. 14:00 1006 - 0,3
Ortszeit Luftdruck NN (hPa) Tendenz (hPa in 3 Std.)
Mi, 22.05. 13:00 1020 + 0,1
Mi, 22.05. 12:50 1020 keine Meldung
Mi, 22.05. 12:40 1020 keine Meldung
Mi, 22.05. 12:30 1020 + 0,3
Mi, 22.05. 12:20 1020 keine Meldung
Mi, 22.05. 12:10 1020 keine Meldung
Mi, 22.05. 12:00 1020 + 0,5
Mi, 22.05. 11:30 1020 + 0,6
Mi, 22.05. 11:00 1020 + 0,8
Mi, 22.05. 10:30 1020 + 0,8
Mi, 22.05. 10:00 1020 + 1,0
Ortszeit Schneehöhe (cm)
Mi, 22.05. 8:00 -
Mi, 22.05. 2:00 -
Di, 21.05. 20:00 -
Di, 21.05. 14:00 -
Di, 21.05. 8:00 -
Di, 21.05. 2:00 -
Mo, 20.05. 20:00 -
Mo, 20.05. 14:00 -
Ortszeit Schneehöhe (cm)
Mi, 22.05. 13:00 -
Mi, 22.05. 12:50 -
Mi, 22.05. 12:40 -
Mi, 22.05. 12:30 -
Mi, 22.05. 12:20 -
Mi, 22.05. 12:10 -
Mi, 22.05. 12:00 -
Mi, 22.05. 11:30 -
Mi, 22.05. 11:00 -
Mi, 22.05. 10:30 -
Mi, 22.05. 10:00 -
Link zu dieser Seite / Seite empfehlen

Das Wetter in ...